Latest Weather Observations for Mallacoota

IDV60801

Issued at 5:35 pm EST Friday 1 August 2014 (issued every 30 minutes, with the page automatically refreshed every 10 minutes)

About weather observations | Map of weather stations | Latest weather observations for VIC | Other Formats
Station Details ID: 084084 Name: MALLACOOTA Lat: -37.60 Lon: 149.73 Height: 22.0 m
Data from the previous 72 hours. | See also: Recent months at Mallacoota
Date/Time
EST
Temp
°C
App
Temp
°C
Dew
Point
Rel
Hum
%
Delta-T
°C
Wind Press
QNH
hPa
Press
MSL
hPa
Rain
since 9 am
mm
Dir
 
Spd
km/h
Gust
km/h
Spd
kts
Gust
kts
01/05:30pm 10.5 4.8 0.5 50 4.1 SW 20 35 11 19 1006.4 - 0.2
01/05:00pm 11.6 7.2 -2.2 38 5.4 W 11 17 6 9 1005.2 - 0.2
01/04:30pm 12.7 7.6 -2.3 35 5.9 W 15 32 8 17 1004.5 - 0.2
01/04:00pm 12.9 6.7 -3.4 32 6.2 W 20 33 11 18 1004.2 - 0.2
01/03:30pm 12.8 7.2 -2.6 34 6.0 W 17 26 9 14 1003.8 - 0.2
01/03:00pm 13.9 9.2 -1.7 34 6.3 W 13 20 7 11 1003.4 1003.4 0.2
01/02:30pm 13.8 9.4 -2.2 33 6.4 W 11 17 6 9 1002.7 - 0.2
01/02:00pm 13.3 10.2 1.6 45 5.0 WNW 7 15 4 8 1002.4 - 0.2
01/01:30pm 13.5 10.1 2.1 46 5.0 SW 9 17 5 9 1002.4 - 0.2
01/01:00pm 14.7 9.9 -2.7 30 6.9 WSW 13 24 7 13 1002.1 - 0.2
01/12:30pm 14.5 9.4 -2.0 32 6.6 W 15 20 8 11 1002.0 - 0.2
01/12:00pm 14.0 8.8 -2.4 32 6.5 WNW 15 26 8 14 1002.2 1002.2 0.2
01/11:30am 13.6 8.7 -0.8 37 5.9 WNW 15 32 8 17 1002.5 - 0.2
01/11:00am 13.1 9.1 0.5 42 5.3 NW 11 19 6 10 1002.4 - 0.2
01/10:30am 11.9 7.8 2.1 51 4.2 N 13 19 7 10 1002.5 - 0.0
01/10:00am 11.3 7.6 2.1 53 3.9 N 11 17 6 9 1002.7 - 0.0
01/09:30am 10.0 6.5 3.3 63 2.9 N 11 15 6 8 1002.9 - 0.0
01/09:00am 8.7 5.4 4.5 75 1.9 N 11 15 6 8 1003.2 1003.2 0.2
01/08:30am 7.2 4.2 4.3 82 1.3 NNW 9 11 5 6 1003.1 - 0.2
01/08:00am 5.9 2.5 4.1 88 0.8 N 11 17 6 9 1002.9 - 0.2
01/07:30am 4.7 1.1 3.0 89 0.7 NNW 11 17 6 9 1002.8 - 0.2
01/07:00am 4.3 1.0 2.5 88 0.7 NW 9 13 5 7 1002.6 - 0.2
01/06:30am 4.6 1.0 2.8 88 0.7 NNW 11 13 6 7 1002.4 - 0.2
01/06:00am 4.7 1.5 2.9 88 0.7 NNW 9 13 5 7 1002.3 1002.3 0.2
01/05:30am 4.7 1.4 2.4 85 0.9 N 9 11 5 6 1001.9 - 0.2
01/05:00am 5.7 2.8 2.7 81 1.2 NNW 7 13 4 7 1001.5 - 0.2
01/04:30am 5.9 2.3 2.9 81 1.2 NNW 11 17 6 9 1001.1 - 0.2
01/04:00am 6.2 3.4 3.0 80 1.3 N 7 11 4 6 1001.1 - 0.2
01/03:30am 6.2 2.3 3.4 82 1.2 WNW 13 22 7 12 1001.4 - 0.2
01/03:00am 6.0 1.8 3.7 85 1.0 WNW 15 24 8 13 1001.1 1001.1 0.2
01/02:30am 5.9 1.7 3.7 86 0.9 W 15 28 8 15 1001.9 - 0.2
01/02:00am 6.5 1.4 3.1 79 1.4 WSW 19 33 10 18 1002.6 - 0.0
01/01:30am 7.9 2.3 3.2 72 2.0 WSW 22 39 12 21 1002.1 - 0.0
01/01:00am 8.0 3.0 4.6 79 1.5 WSW 20 35 11 19 1001.7 - 0.0
01/12:30am 8.0 3.2 4.4 78 1.6 WSW 19 32 10 17 1001.6 - 0.0
01/12:00am 8.5 3.5 4.7 77 1.7 WSW 20 37 11 20 1001.5 1001.5 0.0
 
Date/Time
EST
Temp
°C
App
Temp
°C
Dew
Point
Rel
Hum
%
Delta-T
°C
Wind Press
QNH
hPa
Press
MSL
hPa
Rain
since 9 am
mm
Dir
 
Spd
km/h
Gust
km/h
Spd
kts
Gust
kts
31/11:30pm 9.7 5.0 5.1 73 2.1 SW 19 28 10 15 1001.1 - 0.0
31/11:00pm 10.2 5.4 5.4 72 2.2 SW 20 33 11 18 1001.2 - 0.0
31/10:30pm 10.7 6.1 5.7 71 2.3 SW 19 33 10 18 1001.1 - 0.0
31/10:00pm 10.7 6.9 5.9 72 2.2 SW 15 30 8 16 1000.7 - 0.0
31/09:30pm 11.1 7.0 6.3 72 2.3 SW 17 32 9 17 1000.1 - 0.0
31/09:00pm 11.4 6.8 6.5 72 2.3 SW 20 33 11 18 999.6 999.6 0.0
31/08:30pm 11.9 5.9 7.2 73 2.3 SW 28 44 15 24 999.1 - 0.0
31/08:05pm 13.6 7.7 7.6 67 3.0 SSW 28 59 15 32 998.4 - 0.0
31/08:00pm 16.0 10.8 5.6 50 5.0 SSW 22 54 12 29 998.3 - 0.0
31/07:30pm 19.4 14.1 -0.6 26 8.7 NW 17 32 9 17 997.3 - 0.0
31/07:00pm 19.9 13.2 -1.2 24 9.1 NW 24 43 13 23 997.2 - 0.0
31/06:30pm 19.8 13.8 -1.3 24 9.1 WNW 20 43 11 23 996.8 - 0.0
31/06:00pm 19.1 14.5 -1.4 25 8.8 NNW 13 20 7 11 996.0 996.0 0.0
31/05:50pm 19.2 14.5 -1.8 24 8.9 NNW 13 22 7 12 995.8 - 0.0
31/05:30pm 14.0 11.4 3.2 48 4.8 N 6 9 3 5 995.5 - 0.0
31/05:00pm 17.3 14.3 0.9 33 7.2 NW 6 9 3 5 995.3 - 0.0
31/04:30pm 20.8 17.1 0.1 25 9.2 NNW 9 13 5 7 995.1 - 0.0
31/04:00pm 21.7 17.2 -0.3 23 9.8 NNW 13 30 7 16 994.8 - 0.0
31/03:30pm 22.2 16.5 -0.5 22 10.1 NNW 19 30 10 16 995.1 - 0.0
31/03:00pm 22.8 18.6 1.8 25 9.9 N 13 24 7 13 995.5 995.5 0.0
31/02:30pm 22.8 17.9 1.8 25 9.8 NW 17 30 9 16 995.7 - 0.0
31/02:00pm 22.7 17.7 1.1 24 10.0 NW 17 32 9 17 995.8 - 0.0
31/01:30pm 22.7 17.3 2.2 26 9.7 NW 20 37 11 20 996.3 - 0.0
31/01:00pm 22.6 18.9 4.6 31 8.9 NNW 13 22 7 12 997.0 - 0.0
31/12:30pm 21.2 17.7 7.4 41 7.1 N 15 20 8 11 998.0 - 0.0
31/12:00pm 20.5 17.3 6.8 41 7.0 N 13 24 7 13 999.1 999.1 0.0
31/11:30am 20.2 16.2 6.5 41 6.9 N 17 24 9 13 1000.2 - 0.0
31/11:00am 19.3 15.2 6.4 43 6.4 N 17 22 9 12 1001.2 - 0.0
31/10:30am 18.6 15.8 7.1 47 5.8 N 11 22 6 12 1001.9 - 0.0
31/10:00am 18.1 15.3 6.9 48 5.6 N 11 17 6 9 1002.5 - 0.0
31/09:30am 16.3 12.6 6.2 51 4.9 N 15 22 8 12 1003.2 - 0.0
31/09:00am 14.4 11.0 6.0 57 4.0 N 13 19 7 10 1003.7 1003.7 0.0
31/08:30am 12.8 8.9 5.2 60 3.5 N 15 20 8 11 1004.3 - 0.0
31/08:00am 11.6 7.2 5.0 64 3.0 NNW 17 22 9 12 1004.5 - 0.0
31/07:30am 10.8 7.1 4.7 66 2.8 NNW 13 17 7 9 1004.7 - 0.0
31/07:00am 9.5 6.2 4.5 71 2.2 NNW 11 17 6 9 1005.0 - 0.0
31/06:30am 9.7 6.0 4.7 71 2.2 NNW 13 19 7 10 1005.3 - 0.0
31/06:00am 9.8 6.2 5.0 72 2.2 NNW 13 20 7 11 1005.4 1005.4 0.0
31/05:30am 9.7 6.0 4.7 71 2.2 NNW 13 17 7 9 1005.6 - 0.0
31/05:00am 10.3 6.7 5.1 70 2.4 NNW 13 17 7 9 1006.0 - 0.0
31/04:30am 10.4 6.8 4.8 68 2.5 NNW 13 17 7 9 1006.4 - 0.0
31/04:00am 10.4 6.8 5.0 69 2.4 NW 13 17 7 9 1006.7 - 0.0
31/03:30am 11.0 7.4 5.1 67 2.7 NW 13 15 7 8 1007.0 - 0.0
31/03:00am 11.7 8.2 5.6 66 2.8 NNW 13 19 7 10 1007.3 1007.3 0.0
31/02:30am 12.0 8.5 5.4 64 3.1 NW 13 17 7 9 1007.8 - 0.0
31/02:00am 11.8 8.7 5.7 66 2.8 NW 11 17 6 9 1008.2 - 0.0
31/01:30am 11.6 8.2 5.7 67 2.7 NW 13 19 7 10 1008.5 - 0.0
31/01:00am 10.9 7.9 6.1 72 2.2 NW 11 15 6 8 1008.6 - 0.0
31/12:30am 10.9 8.3 6.1 72 2.2 NNW 9 13 5 7 1008.8 - 0.0
31/12:00am 11.7 8.8 6.4 70 2.5 NNW 11 15 6 8 1009.0 1009.0 0.0
 
Date/Time
EST
Temp
°C
App
Temp
°C
Dew
Point
Rel
Hum
%
Delta-T
°C
Wind Press
QNH
hPa
Press
MSL
hPa
Rain
since 9 am
mm
Dir
 
Spd
km/h
Gust
km/h
Spd
kts
Gust
kts
30/11:30pm 11.0 8.1 6.7 75 2.0 NNW 11 15 6 8 1009.2 - 0.0
30/11:00pm 11.4 8.1 6.5 72 2.3 NNW 13 19 7 10 1009.3 - 0.0
30/10:30pm 11.6 8.8 7.1 74 2.2 NNW 11 17 6 9 1009.4 - 0.0
30/10:00pm 10.8 8.0 7.1 78 1.8 NNW 11 15 6 8 1009.5 - 0.0
30/09:30pm 11.5 9.0 8.0 79 1.7 NNW 11 15 6 8 1009.4 - 0.0
30/09:00pm 11.6 8.8 8.5 81 1.5 NW 13 15 7 8 1009.7 1009.7 0.0
30/08:30pm 11.7 9.3 8.6 81 1.5 NNW 11 13 6 7 1009.9 - 0.0
30/08:00pm 12.3 10.2 9.7 84 1.3 NNW 11 15 6 8 1010.1 - 0.0
30/07:30pm 12.1 10.5 10.2 88 1.0 NW 9 11 5 6 1010.1 - 0.0
30/07:00pm 12.8 11.0 10.7 87 1.1 NNW 11 13 6 7 1009.9 - 0.0
30/06:30pm 13.5 11.9 11.7 89 1.0 NNW 11 15 6 8 1009.6 - 0.0
30/06:00pm 13.3 11.7 11.7 90 0.9 NW 11 13 6 7 1009.4 1009.4 0.0
30/05:30pm 13.6 12.4 11.7 88 1.0 WNW 9 11 5 6 1009.3 - 0.0
30/05:00pm 14.8 15.5 12.1 84 1.5 CALM 0 0 0 0 1009.4 - 0.0
30/04:30pm 15.7 15.7 12.3 80 1.9 SE 4 6 2 3 1009.2 - 0.0
30/04:00pm 16.3 16.3 12.5 78 2.1 E 4 7 2 4 1009.0 - 0.0
30/03:30pm 16.5 16.0 12.7 78 2.1 NNE 7 11 4 6 1009.2 - 0.0
30/03:00pm 15.8 16.2 12.4 80 1.9 SE 2 6 1 3 1009.5 1009.5 0.0
30/02:30pm 15.6 15.8 12.0 79 2.0 SSE 2 7 1 4 1009.5 - 0.0
30/02:00pm 15.9 13.8 12.5 80 1.9 S 15 20 8 11 1009.7 - 0.0
30/01:30pm 15.9 12.9 11.9 77 2.2 S 19 24 10 13 1009.7 - 0.0
30/01:00pm 16.6 15.2 12.2 75 2.4 S 11 17 6 9 1010.0 - 0.0
30/12:30pm 18.2 17.2 12.2 68 3.3 E 9 17 5 9 1010.0 - 0.0
30/12:00pm 20.3 18.8 10.4 53 5.4 NNW 9 13 5 7 1010.2 1010.2 0.0
30/11:30am 19.0 16.4 9.2 53 5.2 N 13 19 7 10 1010.7 - 0.0
30/11:00am 18.5 16.0 9.6 56 4.7 N 13 17 7 9 1011.1 - 0.0
30/10:30am 17.0 15.5 10.4 65 3.5 NE 9 11 5 6 1011.3 - 0.0
30/10:00am 16.5 15.2 10.1 66 3.4 NE 7 11 4 6 1011.6 - 0.0
30/09:30am 16.0 14.8 9.7 66 3.3 N 6 7 3 4 1011.7 - 0.0
30/09:00am 13.9 12.3 8.9 72 2.5 NW 7 9 4 5 1011.9 1011.9 0.0
30/08:30am 12.6 10.9 8.5 76 2.0 NW 7 9 4 5 1011.8 - 0.0
30/08:00am 10.4 8.9 6.9 79 1.7 W 4 7 2 4 1011.6 - 0.0
30/07:30am 11.7 9.6 6.8 72 2.3 SSW 7 11 4 6 1011.5 - 0.0
30/07:00am 12.6 9.7 6.6 67 2.9 WNW 11 13 6 7 1011.0 - 0.0
30/06:30am 12.2 9.3 6.3 67 2.8 WNW 11 13 6 7 1010.5 - 0.0
30/06:00am 12.1 8.8 6.2 67 2.8 NW 13 15 7 8 1010.1 1010.1 0.0
30/05:30am 12.1 8.8 6.2 67 2.8 NW 13 17 7 9 1009.7 - 0.0
30/05:00am 11.3 8.3 6.0 70 2.5 NW 11 15 6 8 1009.5 - 0.0
30/04:30am 10.6 7.1 5.4 70 2.4 NNW 13 17 7 9 1009.1 - 0.0
30/04:00am 9.6 6.0 4.8 72 2.1 NW 13 15 7 8 1008.8 - 0.0
30/03:30am 9.9 6.4 5.3 73 2.1 NW 13 15 7 8 1008.7 - 0.0
30/03:00am 8.2 4.7 5.3 82 1.3 NNW 13 15 7 8 1008.6 1008.6 0.0
30/02:30am 8.2 5.4 5.0 80 1.4 WNW 9 11 5 6 1008.5 - 0.0
30/02:00am 9.1 6.2 4.5 73 2.0 WNW 9 11 5 6 1008.4 - 0.0
30/01:30am 10.6 7.4 5.2 69 2.5 NNW 11 13 6 7 1008.3 - 0.0
30/01:00am 10.5 7.6 4.9 68 2.5 NW 9 13 5 7 1008.3 - 0.0
30/12:30am 11.1 7.8 4.6 64 2.9 NNW 11 13 6 7 1008.1 - 0.0
30/12:00am 11.1 7.6 5.6 69 2.5 N 13 17 7 9 1007.9 1007.9 0.0
 
Date/Time
EST
Temp
°C
App
Temp
°C
Dew
Point
Rel
Hum
%
Delta-T
°C
Wind Press
QNH
hPa
Press
MSL
hPa
Rain
since 9 am
mm
Dir
 
Spd
km/h
Gust
km/h
Spd
kts
Gust
kts
29/11:30pm 9.6 6.7 4.8 72 2.1 N 9 13 5 7 1008.1 - 0.0
29/11:00pm 10.8 7.7 5.6 70 2.4 N 11 17 6 9 1008.1 - 0.0
29/10:30pm 9.8 7.0 5.2 73 2.1 N 9 13 5 7 1007.9 - 0.0
29/10:00pm 8.6 5.7 4.8 77 1.7 N 9 11 5 6 1007.9 - 0.0
29/09:30pm 9.7 8.6 5.1 73 2.1 CALM 0 0 0 0 1008.4 - 0.0
29/09:00pm 12.4 10.1 4.9 60 3.5 N 6 9 3 5 1008.1 1008.1 0.0
29/08:30pm 13.1 9.1 4.8 57 3.8 N 15 17 8 9 1007.5 - 0.0
29/08:00pm 13.2 9.5 4.6 56 4.0 N 13 17 7 9 1007.5 - 0.0
29/07:30pm 12.5 9.3 5.0 60 3.5 N 11 17 6 9 1007.3 - 0.0
29/07:00pm 11.8 8.9 4.5 61 3.3 N 9 11 5 6 1007.8 - 0.0
29/06:30pm 13.7 10.8 4.6 54 4.2 N 9 13 5 7 1007.5 - 0.0
29/06:00pm 14.7 11.8 4.4 50 4.8 N 9 13 5 7 1007.2 1007.2 0.0

Other Formats:

Comma delimited format used in spreadsheet applications
http://www.bom.gov.au/fwo/IDV60801/IDV60801.94935.axf

JavaScript Object Notation format (JSON) in row-major order
http://www.bom.gov.au/fwo/IDV60801/IDV60801.94935.json